createdAt,value
2022-08-31T00:00:27.225Z,100824.00
2022-08-31T00:03:12.211Z,100813.53
2022-08-31T00:05:38.533Z,100813.34
2022-08-31T00:08:04.833Z,100811.34
2022-08-31T00:10:32.512Z,100804.25
2022-08-31T00:13:03.200Z,100805.66
2022-08-31T00:15:30.436Z,100810.50
2022-08-31T00:17:56.769Z,100801.66
2022-08-31T00:20:33.479Z,100809.28
2022-08-31T00:23:00.768Z,100799.38
2022-08-31T00:25:27.085Z,100809.72
2022-08-31T00:27:55.550Z,100798.34
2022-08-31T00:30:22.247Z,100807.94
2022-08-31T00:32:48.560Z,100810.66
2022-08-31T00:35:14.893Z,100815.75
2022-08-31T00:37:41.194Z,100814.97
2022-08-31T00:40:07.571Z,100810.22
2022-08-31T00:42:33.892Z,100816.19
2022-08-31T00:45:00.228Z,100814.09
2022-08-31T00:47:26.530Z,100810.66
2022-08-31T00:49:52.890Z,100822.09
2022-08-31T00:52:19.183Z,100817.09
2022-08-31T00:54:45.529Z,100823.25
2022-08-31T00:57:11.828Z,100822.78
2022-08-31T00:59:38.147Z,100825.56
2022-08-31T01:02:04.543Z,100820.25
2022-08-31T01:04:30.971Z,100820.13
2022-08-31T01:06:57.277Z,100826.00
2022-08-31T01:09:23.605Z,100827.31
2022-08-31T01:11:49.904Z,100830.91
2022-08-31T01:14:16.211Z,100822.34
2022-08-31T01:16:42.578Z,100828.88
2022-08-31T01:19:08.950Z,100822.22
2022-08-31T01:21:35.294Z,100824.41
2022-08-31T01:24:01.588Z,100820.50
2022-08-31T01:26:27.892Z,100822.41
2022-08-31T01:28:57.170Z,100829.28
2022-08-31T01:31:23.544Z,100835.63
2022-08-31T01:33:49.905Z,100835.38
2022-08-31T01:36:16.426Z,100828.06
2022-08-31T01:38:42.780Z,100839.06
2022-08-31T01:41:09.088Z,100833.25
2022-08-31T01:43:35.418Z,100835.59
2022-08-31T01:46:01.757Z,100829.94
2022-08-31T01:48:28.056Z,100826.13
2022-08-31T01:50:54.347Z,100828.78
2022-08-31T01:53:20.654Z,100833.72
2022-08-31T01:55:46.982Z,100833.16
2022-08-31T01:58:13.288Z,100840.88
2022-08-31T02:00:39.609Z,100823.66
2022-08-31T02:03:08.003Z,100835.06
2022-08-31T02:05:34.385Z,100819.09
2022-08-31T02:08:00.680Z,100826.44
2022-08-31T02:10:27.125Z,100819.22
2022-08-31T02:12:53.429Z,100814.06
2022-08-31T02:15:19.924Z,100820.72
2022-08-31T02:17:46.243Z,100813.88
2022-08-31T02:20:12.569Z,100816.22
2022-08-31T02:22:38.863Z,100812.22
2022-08-31T02:25:05.531Z,100808.78
2022-08-31T02:27:35.373Z,100814.03
2022-08-31T02:30:01.668Z,100806.75
2022-08-31T02:32:27.960Z,100799.63
2022-08-31T02:34:54.287Z,100804.41
2022-08-31T02:37:20.601Z,100792.16
2022-08-31T02:39:47.509Z,100794.22
2022-08-31T02:42:15.629Z,100800.97
2022-08-31T02:44:44.720Z,100797.13
2022-08-31T02:47:11.024Z,100810.19
2022-08-31T02:49:37.372Z,100800.81
2022-08-31T02:52:03.920Z,100803.66
2022-08-31T02:54:30.214Z,100801.41
2022-08-31T02:56:56.513Z,100807.34
2022-08-31T02:59:22.821Z,100807.75
2022-08-31T03:01:50.081Z,100802.94
2022-08-31T03:04:16.511Z,100798.84
2022-08-31T03:06:42.819Z,100805.50
2022-08-31T03:09:09.121Z,100799.03
2022-08-31T03:11:35.441Z,100803.53
2022-08-31T03:14:01.743Z,100797.03
2022-08-31T03:16:28.037Z,100797.53
2022-08-31T03:18:54.333Z,100806.50
2022-08-31T03:21:20.628Z,100804.53
2022-08-31T03:23:46.935Z,100801.47
2022-08-31T03:26:13.242Z,100803.25
2022-08-31T03:28:39.557Z,100801.03
2022-08-31T03:31:05.909Z,100795.34
2022-08-31T03:33:32.241Z,100802.63
2022-08-31T03:35:59.136Z,100799.56
2022-08-31T03:38:25.431Z,100804.66
2022-08-31T03:40:51.759Z,100801.81
2022-08-31T03:43:18.262Z,100799.16
2022-08-31T03:45:44.655Z,100791.19
2022-08-31T03:48:12.885Z,100796.06
2022-08-31T03:50:39.601Z,100804.91
2022-08-31T03:53:06.066Z,100805.16
2022-08-31T03:55:32.369Z,100806.16
2022-08-31T03:57:58.674Z,100809.59
2022-08-31T04:00:25.254Z,100816.69
2022-08-31T04:02:57.286Z,100809.78
2022-08-31T04:05:23.634Z,100814.19
2022-08-31T04:07:49.945Z,100812.09
2022-08-31T04:10:16.260Z,100817.63
2022-08-31T04:12:42.564Z,100819.88
2022-08-31T04:15:08.910Z,100824.84
2022-08-31T04:17:35.260Z,100812.22
2022-08-31T04:20:01.569Z,100821.28
2022-08-31T04:22:27.867Z,100825.06
2022-08-31T04:24:54.184Z,100821.38
2022-08-31T04:27:20.483Z,100822.09
2022-08-31T04:29:46.961Z,100822.84
2022-08-31T04:32:13.280Z,100819.97
2022-08-31T04:34:39.825Z,100828.97
2022-08-31T04:37:08.768Z,100837.13
2022-08-31T04:39:35.089Z,100836.84
2022-08-31T04:42:16.889Z,100835.63
2022-08-31T04:44:43.225Z,100838.88
2022-08-31T04:47:09.520Z,100838.72
2022-08-31T04:49:35.843Z,100837.34
2022-08-31T04:52:03.175Z,100834.13
2022-08-31T04:54:29.555Z,100836.44
2022-08-31T04:56:55.872Z,100846.16
2022-08-31T04:59:26.070Z,100852.75
2022-08-31T05:01:52.563Z,100854.84
2022-08-31T05:04:18.989Z,100851.47
2022-08-31T05:06:45.304Z,100855.88
2022-08-31T05:09:11.625Z,100859.53
2022-08-31T05:11:37.951Z,100853.84
2022-08-31T05:14:04.269Z,100854.09
2022-08-31T05:16:30.847Z,100864.91
2022-08-31T05:18:57.186Z,100865.97
2022-08-31T05:21:28.275Z,100869.97
2022-08-31T05:23:54.611Z,100865.75
2022-08-31T05:26:25.992Z,100863.53
2022-08-31T05:28:52.948Z,100863.25
2022-08-31T05:31:19.963Z,100876.09
2022-08-31T05:33:46.272Z,100869.31
2022-08-31T05:36:12.572Z,100876.19
2022-08-31T05:38:38.877Z,100873.91
2022-08-31T05:41:06.094Z,100876.22
2022-08-31T05:43:32.395Z,100875.38
2022-08-31T05:45:58.730Z,100875.38
2022-08-31T05:48:29.832Z,100878.53
2022-08-31T05:50:56.580Z,100882.59
2022-08-31T05:53:23.718Z,100885.47
2022-08-31T05:55:50.052Z,100887.34
2022-08-31T05:58:16.357Z,100890.53
2022-08-31T06:00:42.712Z,100889.22
2022-08-31T06:03:09.007Z,100893.50
2022-08-31T06:05:35.894Z,100891.44
2022-08-31T06:08:02.364Z,100892.59
2022-08-31T06:10:28.741Z,100896.75
2022-08-31T06:12:55.127Z,100895.34
2022-08-31T06:15:21.435Z,100892.69
2022-08-31T06:17:47.744Z,100896.59
2022-08-31T06:20:17.812Z,100905.13
2022-08-31T06:22:47.900Z,100905.19
2022-08-31T06:25:17.485Z,100904.47
2022-08-31T06:27:43.992Z,100905.94
2022-08-31T06:30:10.332Z,100900.50
2022-08-31T06:32:36.633Z,100903.97
2022-08-31T06:35:02.981Z,100901.69
2022-08-31T06:37:29.592Z,100909.66
2022-08-31T06:39:55.898Z,100910.50
2022-08-31T06:42:22.206Z,100900.66
2022-08-31T06:44:48.541Z,100906.81
2022-08-31T06:47:15.403Z,100919.19
2022-08-31T06:49:41.726Z,100910.25
2022-08-31T06:52:08.019Z,100910.84
2022-08-31T06:54:34.319Z,100924.66
2022-08-31T06:57:02.671Z,100912.81
2022-08-31T06:59:29.916Z,100916.69
2022-08-31T07:01:56.572Z,100910.28
2022-08-31T07:04:22.989Z,100922.66
2022-08-31T07:06:49.310Z,100926.84
2022-08-31T07:09:17.810Z,100933.91
2022-08-31T07:11:44.894Z,100928.94
2022-08-31T07:14:12.317Z,100936.19
2022-08-31T07:16:38.739Z,100922.00
2022-08-31T07:19:06.266Z,100930.31
2022-08-31T07:21:32.565Z,100934.19
2022-08-31T07:23:58.874Z,100931.56
2022-08-31T07:26:25.724Z,100930.81
2022-08-31T07:28:53.504Z,100929.31
2022-08-31T07:31:20.136Z,100924.56
2022-08-31T07:33:46.754Z,100922.28
2022-08-31T07:36:13.065Z,100929.16
2022-08-31T07:38:58.229Z,100923.41
2022-08-31T07:41:43.056Z,100923.38
2022-08-31T07:44:09.716Z,100922.59
2022-08-31T07:46:37.343Z,100928.19
2022-08-31T07:49:03.943Z,100938.41
2022-08-31T07:51:30.265Z,100936.75
2022-08-31T07:53:56.879Z,100927.66
2022-08-31T07:56:23.399Z,100925.69
2022-08-31T07:58:50.069Z,100930.31
2022-08-31T08:01:16.359Z,100928.84
2022-08-31T08:03:45.023Z,100924.41
2022-08-31T08:06:15.382Z,100919.19
2022-08-31T08:08:42.757Z,100923.53
2022-08-31T08:11:09.071Z,100933.84
2022-08-31T08:13:35.651Z,100927.03
2022-08-31T08:16:02.064Z,100924.16
2022-08-31T08:18:29.693Z,100930.28
2022-08-31T08:20:56.090Z,100926.94
2022-08-31T08:23:28.014Z,100926.69
2022-08-31T08:25:55.873Z,100932.66
2022-08-31T08:28:40.781Z,100925.91
2022-08-31T08:31:07.682Z,100934.53
2022-08-31T08:33:34.057Z,100935.00
2022-08-31T08:36:00.421Z,100938.97
2022-08-31T08:38:26.982Z,100935.22
2022-08-31T08:40:53.372Z,100935.84
2022-08-31T08:43:19.853Z,100942.44
2022-08-31T08:45:46.369Z,100943.97
2022-08-31T08:48:13.143Z,100937.56
2022-08-31T08:50:39.501Z,100936.25
2022-08-31T08:53:05.812Z,100935.38
2022-08-31T08:55:32.113Z,100943.16
2022-08-31T08:57:58.417Z,100937.78
2022-08-31T09:00:25.032Z,100945.75
2022-08-31T09:02:53.486Z,100940.72
2022-08-31T09:05:21.709Z,100938.88
2022-08-31T09:07:48.029Z,100940.88
2022-08-31T09:10:14.370Z,100951.00
2022-08-31T09:12:44.750Z,100947.16
2022-08-31T09:15:11.578Z,100940.25
2022-08-31T09:17:37.941Z,100945.69
2022-08-31T09:20:05.662Z,100947.00
2022-08-31T09:22:32.826Z,100936.78
2022-08-31T09:25:03.538Z,100940.66
2022-08-31T09:27:31.243Z,100942.84
2022-08-31T09:29:57.544Z,100935.50
2022-08-31T09:32:24.709Z,100938.63
2022-08-31T09:34:51.179Z,100937.59
2022-08-31T09:37:17.638Z,100927.22
2022-08-31T09:39:47.493Z,100937.19
2022-08-31T09:42:14.559Z,100937.78
2022-08-31T09:44:41.147Z,100928.25
2022-08-31T09:47:08.139Z,100930.22
2022-08-31T09:49:36.794Z,100932.66
2022-08-31T09:52:03.190Z,100934.47
2022-08-31T09:54:48.083Z,100931.78
2022-08-31T09:57:14.400Z,100936.53
2022-08-31T09:59:42.023Z,100932.75
2022-08-31T10:02:08.377Z,100925.00
2022-08-31T10:04:44.976Z,100924.22
2022-08-31T10:07:11.977Z,100927.13
2022-08-31T10:09:38.248Z,100917.16
2022-08-31T10:12:04.549Z,100921.41
2022-08-31T10:14:30.919Z,100927.50
2022-08-31T10:16:57.288Z,100924.25
2022-08-31T10:19:32.597Z,100924.03
2022-08-31T10:21:59.892Z,100918.44
2022-08-31T10:24:32.435Z,100918.78
2022-08-31T10:26:58.890Z,100918.44
2022-08-31T10:29:25.181Z,100921.63
2022-08-31T10:31:51.475Z,100927.97
2022-08-31T10:34:36.476Z,100923.59
2022-08-31T10:37:03.545Z,100924.53
2022-08-31T10:39:29.859Z,100906.19
2022-08-31T10:41:56.168Z,100924.09
2022-08-31T10:44:26.723Z,100922.41
2022-08-31T10:46:58.948Z,100918.44
2022-08-31T10:49:25.257Z,100918.56
2022-08-31T10:51:51.641Z,100918.69
2022-08-31T10:54:21.971Z,100917.72
2022-08-31T10:56:50.649Z,100915.56
2022-08-31T10:59:16.982Z,100915.94
2022-08-31T11:01:43.439Z,100913.78
2022-08-31T11:04:09.795Z,100913.19
2022-08-31T11:06:36.125Z,100915.09
2022-08-31T11:09:02.429Z,100912.09
2022-08-31T11:11:28.913Z,100908.56
2022-08-31T11:14:00.254Z,100915.44
2022-08-31T11:16:26.940Z,100912.81
2022-08-31T11:18:55.637Z,100903.94
2022-08-31T11:21:21.968Z,100908.38
2022-08-31T11:23:48.417Z,100907.47
2022-08-31T11:26:14.719Z,100906.19
2022-08-31T11:28:41.017Z,100910.50
2022-08-31T11:31:07.402Z,100916.41
2022-08-31T11:33:35.585Z,100913.00
2022-08-31T11:36:10.209Z,100913.63
2022-08-31T11:38:36.525Z,100910.06
2022-08-31T11:41:03.967Z,100908.59
2022-08-31T11:43:30.271Z,100899.69
2022-08-31T11:45:59.057Z,100900.88
2022-08-31T11:48:26.072Z,100900.69
2022-08-31T11:50:53.004Z,100895.75
2022-08-31T11:53:19.758Z,100895.75
2022-08-31T11:55:46.205Z,100896.44
2022-08-31T11:58:18.537Z,100885.78
2022-08-31T12:00:52.076Z,100905.16
2022-08-31T12:03:19.038Z,100897.97
2022-08-31T12:05:50.856Z,100902.94
2022-08-31T12:08:17.848Z,100899.00
2022-08-31T12:10:44.088Z,100895.72
2022-08-31T12:13:18.590Z,100885.25
2022-08-31T12:15:45.323Z,100886.19
2022-08-31T12:18:11.656Z,100887.19
2022-08-31T12:20:56.839Z,100880.50
2022-08-31T12:23:35.256Z,100884.66
2022-08-31T12:26:01.708Z,100877.44
2022-08-31T12:28:29.552Z,100881.88
2022-08-31T12:30:55.951Z,100869.16
2022-08-31T12:33:22.287Z,100879.84
2022-08-31T12:35:49.613Z,100871.47
2022-08-31T12:38:15.936Z,100874.38
2022-08-31T12:40:42.331Z,100878.34
2022-08-31T12:43:08.677Z,100880.41
2022-08-31T12:45:35.005Z,100877.22
2022-08-31T12:48:01.306Z,100873.63
2022-08-31T12:50:27.631Z,100876.00
2022-08-31T12:52:53.940Z,100873.19
2022-08-31T12:55:22.095Z,100870.56
2022-08-31T12:57:49.264Z,100872.56
2022-08-31T13:00:17.736Z,100879.53
2022-08-31T13:02:44.232Z,100873.34
2022-08-31T13:05:10.632Z,100872.38
2022-08-31T13:07:36.941Z,100866.88
2022-08-31T13:10:03.389Z,100870.97
2022-08-31T13:12:29.752Z,100862.75
2022-08-31T13:14:56.106Z,100863.91
2022-08-31T13:17:22.426Z,100868.06
2022-08-31T13:19:48.915Z,100858.31
2022-08-31T13:22:16.926Z,100865.56
2022-08-31T13:24:47.954Z,100863.00
2022-08-31T13:27:20.505Z,100864.47
2022-08-31T13:29:46.817Z,100858.13
2022-08-31T13:32:13.126Z,100853.19
2022-08-31T13:34:41.945Z,100851.66
2022-08-31T13:37:11.501Z,100858.09
2022-08-31T13:39:44.675Z,100850.72
2022-08-31T13:42:10.967Z,100851.31
2022-08-31T13:44:40.307Z,100855.09
2022-08-31T13:47:06.710Z,100840.41
2022-08-31T13:49:35.306Z,100843.44
2022-08-31T13:52:01.663Z,100853.09
2022-08-31T13:54:28.035Z,100844.06
2022-08-31T13:57:01.149Z,100846.25
2022-08-31T13:59:27.774Z,100843.19
2022-08-31T14:01:54.903Z,100848.16
2022-08-31T14:04:24.109Z,100841.84
2022-08-31T14:06:50.407Z,100857.19
2022-08-31T14:09:17.420Z,100839.91
2022-08-31T14:11:43.937Z,100848.06
2022-08-31T14:14:11.297Z,100839.16
2022-08-31T14:16:38.186Z,100845.34
2022-08-31T14:19:04.467Z,100842.38
2022-08-31T14:21:30.964Z,100836.28
2022-08-31T14:24:00.938Z,100846.69
2022-08-31T14:26:29.775Z,100837.63
2022-08-31T14:28:56.074Z,100832.75
2022-08-31T14:31:24.754Z,100835.38
2022-08-31T14:33:51.174Z,100837.56
2022-08-31T14:36:19.259Z,100837.03
2022-08-31T14:38:46.509Z,100845.69
2022-08-31T14:41:12.899Z,100841.84
2022-08-31T14:43:39.203Z,100824.00
2022-08-31T14:46:05.769Z,100832.69
2022-08-31T14:48:32.159Z,100828.00
2022-08-31T14:50:59.055Z,100836.34
2022-08-31T14:53:28.698Z,100840.16
2022-08-31T14:55:55.001Z,100829.06
2022-08-31T14:58:23.817Z,100823.59
2022-08-31T15:00:53.780Z,100836.13
2022-08-31T15:03:24.337Z,100826.75
2022-08-31T15:05:51.178Z,100828.94
2022-08-31T15:08:20.177Z,100833.75
2022-08-31T15:10:56.012Z,100835.06
2022-08-31T15:13:22.379Z,100831.34
2022-08-31T15:15:48.671Z,100823.50
2022-08-31T15:18:15.022Z,100829.06
2022-08-31T15:20:41.933Z,100827.94
2022-08-31T15:23:09.356Z,100826.59
2022-08-31T15:25:36.246Z,100831.50
2022-08-31T15:28:03.048Z,100835.06
2022-08-31T15:30:29.340Z,100831.94
2022-08-31T15:32:57.056Z,100830.00
2022-08-31T15:35:24.453Z,100828.63
2022-08-31T15:37:53.039Z,100829.63
2022-08-31T15:40:21.490Z,100831.84
2022-08-31T15:42:50.164Z,100829.09
2022-08-31T15:45:16.455Z,100823.16
2022-08-31T15:48:01.574Z,100817.69
2022-08-31T15:50:32.148Z,100814.25
2022-08-31T15:52:58.653Z,100816.13
2022-08-31T15:55:26.587Z,100805.38
2022-08-31T15:57:54.421Z,100815.63
2022-08-31T16:00:21.016Z,100812.34
2022-08-31T16:02:47.380Z,100812.88
2022-08-31T16:05:13.835Z,100812.56
2022-08-31T16:07:40.201Z,100815.94
2022-08-31T16:10:11.243Z,100812.03
2022-08-31T16:12:38.342Z,100816.28
2022-08-31T16:15:04.954Z,100812.38
2022-08-31T16:17:31.325Z,100808.78
2022-08-31T16:19:57.673Z,100811.69
2022-08-31T16:22:25.741Z,100809.69
2022-08-31T16:24:57.389Z,100812.22
2022-08-31T16:27:23.728Z,100813.59
2022-08-31T16:29:50.946Z,100810.69
2022-08-31T16:32:17.755Z,100819.38
2022-08-31T16:34:44.105Z,100818.88
2022-08-31T16:37:10.493Z,100815.25
2022-08-31T16:39:37.078Z,100813.91
2022-08-31T16:42:03.427Z,100813.06
2022-08-31T16:44:36.647Z,100818.38
2022-08-31T16:47:03.465Z,100818.72
2022-08-31T16:49:36.547Z,100807.59
2022-08-31T16:52:03.385Z,100808.94
2022-08-31T16:54:29.850Z,100806.88
2022-08-31T16:56:57.689Z,100812.06
2022-08-31T16:59:24.237Z,100799.41
2022-08-31T17:01:50.651Z,100808.81
2022-08-31T17:04:29.502Z,100812.53
2022-08-31T17:07:01.475Z,100802.63
2022-08-31T17:09:27.854Z,100814.28
2022-08-31T17:11:57.281Z,100811.34
2022-08-31T17:14:23.896Z,100810.66
2022-08-31T17:16:50.720Z,100814.28
2022-08-31T17:19:17.497Z,100815.13
2022-08-31T17:21:49.830Z,100822.47
2022-08-31T17:24:16.204Z,100821.28
2022-08-31T17:26:42.615Z,100821.63
2022-08-31T17:29:08.971Z,100827.41
2022-08-31T17:31:35.424Z,100830.47
2022-08-31T17:34:01.839Z,100831.63
2022-08-31T17:36:33.207Z,100825.53
2022-08-31T17:39:03.055Z,100827.94
2022-08-31T17:41:29.425Z,100828.94
2022-08-31T17:43:57.176Z,100826.56
2022-08-31T17:46:23.916Z,100828.94
2022-08-31T17:48:51.173Z,100825.69
2022-08-31T17:51:18.890Z,100829.31
2022-08-31T17:53:45.249Z,100839.09
2022-08-31T17:56:11.947Z,100834.59
2022-08-31T17:58:38.304Z,100836.13
2022-08-31T18:01:04.710Z,100834.75
2022-08-31T18:03:31.146Z,100836.63
2022-08-31T18:05:57.593Z,100845.25
2022-08-31T18:08:26.383Z,100847.69
2022-08-31T18:10:52.723Z,100847.50
2022-08-31T18:13:19.484Z,100844.19
2022-08-31T18:15:45.820Z,100852.94
2022-08-31T18:18:12.354Z,100851.25
2022-08-31T18:20:39.327Z,100855.66
2022-08-31T18:23:06.988Z,100857.22
2022-08-31T18:25:36.845Z,100861.16
2022-08-31T18:28:03.716Z,100864.69
2022-08-31T18:30:30.103Z,100858.72
2022-08-31T18:32:56.828Z,100865.22
2022-08-31T18:35:24.959Z,100861.66
2022-08-31T18:37:51.310Z,100869.84
2022-08-31T18:40:36.241Z,100865.72
2022-08-31T18:43:21.421Z,100861.78
2022-08-31T18:45:47.771Z,100864.50
2022-08-31T18:48:30.934Z,100866.81
2022-08-31T18:50:58.851Z,100869.41
2022-08-31T18:53:28.432Z,100872.28
2022-08-31T18:55:56.189Z,100876.59
2022-08-31T18:58:22.975Z,100870.09
2022-08-31T19:00:49.715Z,100872.47
2022-08-31T19:03:16.130Z,100867.22
2022-08-31T19:05:42.521Z,100867.53
2022-08-31T19:08:08.863Z,100868.72
2022-08-31T19:10:35.222Z,100875.25
2022-08-31T19:13:07.335Z,100877.53
2022-08-31T19:15:36.139Z,100867.66
2022-08-31T19:18:02.821Z,100870.72
2022-08-31T19:20:30.108Z,100868.00
2022-08-31T19:22:56.461Z,100873.47
2022-08-31T19:25:22.893Z,100871.22
2022-08-31T19:27:51.388Z,100872.56
2022-08-31T19:30:17.782Z,100865.91
2022-08-31T19:32:44.311Z,100871.31
2022-08-31T19:35:10.658Z,100866.41
2022-08-31T19:37:39.137Z,100867.56
2022-08-31T19:40:05.649Z,100860.22
2022-08-31T19:45:40.507Z,100866.72
2022-08-31T19:48:04.941Z,100867.28
2022-08-31T19:50:31.278Z,100866.09
2022-08-31T19:52:57.623Z,100863.41
2022-08-31T19:55:23.994Z,100862.41
2022-08-31T19:57:50.341Z,100869.56
2022-08-31T20:00:16.741Z,100864.31
2022-08-31T20:02:44.448Z,100860.31
2022-08-31T20:05:10.908Z,100862.03
2022-08-31T20:07:37.244Z,100855.47
2022-08-31T20:10:04.168Z,100868.47
2022-08-31T20:12:30.514Z,100865.03
2022-08-31T20:14:56.895Z,100861.25
2022-08-31T20:17:23.886Z,100860.00
2022-08-31T20:19:50.988Z,100865.09
2022-08-31T20:22:17.362Z,100862.88
2022-08-31T20:24:44.910Z,100862.84
2022-08-31T20:27:12.971Z,100864.88
2022-08-31T20:29:39.354Z,100857.69
2022-08-31T20:32:07.826Z,100870.91
2022-08-31T20:34:34.193Z,100861.16
2022-08-31T20:37:01.397Z,100862.31
2022-08-31T20:39:28.391Z,100859.22
2022-08-31T20:41:54.781Z,100852.34
2022-08-31T20:44:21.126Z,100860.75
2022-08-31T20:47:06.164Z,100862.88
2022-08-31T20:49:32.663Z,100856.44
2022-08-31T20:51:59.110Z,100861.44
2022-08-31T20:54:27.721Z,100862.25
2022-08-31T20:56:54.011Z,100856.25
2022-08-31T20:59:23.325Z,100865.38
2022-08-31T21:01:51.270Z,100859.91
2022-08-31T21:04:17.638Z,100865.94
2022-08-31T21:06:45.848Z,100865.53
2022-08-31T21:09:12.152Z,100866.16
2022-08-31T21:11:40.838Z,100863.19
2022-08-31T21:14:08.200Z,100864.09
2022-08-31T21:16:34.704Z,100855.69
2022-08-31T21:19:01.726Z,100862.44
2022-08-31T21:21:30.276Z,100861.50
2022-08-31T21:23:56.729Z,100862.13
2022-08-31T21:26:24.310Z,100867.69
2022-08-31T21:28:50.603Z,100866.00
2022-08-31T21:31:28.473Z,100867.16
2022-08-31T21:33:55.427Z,100867.88
2022-08-31T21:36:23.401Z,100858.44
2022-08-31T21:38:49.627Z,100867.47
2022-08-31T21:41:16.721Z,100871.94
2022-08-31T21:43:44.016Z,100861.06
2022-08-31T21:46:10.430Z,100872.66
2022-08-31T21:48:36.760Z,100865.53
2022-08-31T21:51:03.065Z,100869.00
2022-08-31T21:53:29.370Z,100874.00
2022-08-31T21:55:55.715Z,100878.03
2022-08-31T21:58:22.016Z,100867.03
2022-08-31T22:00:48.348Z,100867.19
2022-08-31T22:03:15.962Z,100867.94
2022-08-31T22:05:43.348Z,100867.94
2022-08-31T22:08:09.649Z,100877.06
2022-08-31T22:10:40.804Z,100879.34
2022-08-31T22:13:08.703Z,100875.09
2022-08-31T22:15:36.282Z,100877.66
2022-08-31T22:18:35.219Z,100889.56
2022-08-31T22:20:51.259Z,100887.97
2022-08-31T22:23:18.771Z,100882.84
2022-08-31T22:25:45.068Z,100889.13
2022-08-31T22:28:12.821Z,100890.81
2022-08-31T22:30:39.207Z,100886.41
2022-08-31T22:33:05.683Z,100881.53
2022-08-31T22:35:31.985Z,100885.53
2022-08-31T22:37:58.286Z,100886.41
2022-08-31T22:40:24.645Z,100880.53
2022-08-31T22:42:50.979Z,100885.69
2022-08-31T22:45:17.285Z,100879.13
2022-08-31T22:47:49.764Z,100882.25
2022-08-31T22:50:16.660Z,100875.94
2022-08-31T22:52:42.976Z,100878.22
2022-08-31T22:55:09.316Z,100873.38
2022-08-31T22:57:35.949Z,100881.38
2022-08-31T23:00:02.256Z,100871.09
2022-08-31T23:02:30.905Z,100874.25
2022-08-31T23:04:57.623Z,100877.38
2022-08-31T23:07:23.923Z,100880.78
2022-08-31T23:09:50.252Z,100867.78
2022-08-31T23:12:16.557Z,100878.16
2022-08-31T23:14:43.080Z,100876.06
2022-08-31T23:17:10.129Z,100883.19
2022-08-31T23:19:36.956Z,100886.06
2022-08-31T23:22:03.663Z,100885.47
2022-08-31T23:24:29.983Z,100881.03
2022-08-31T23:27:01.573Z,100886.16
2022-08-31T23:29:29.479Z,100880.59
2022-08-31T23:31:57.246Z,100880.88
2022-08-31T23:34:24.437Z,100869.78
2022-08-31T23:36:51.325Z,100875.72
2022-08-31T23:39:17.645Z,100876.19
2022-08-31T23:41:45.120Z,100872.44
2022-08-31T23:44:11.437Z,100873.19
2022-08-31T23:46:37.849Z,100868.78
2022-08-31T23:49:04.176Z,100868.50
2022-08-31T23:51:30.503Z,100869.19
2022-08-31T23:54:00.197Z,100873.63
2022-08-31T23:56:30.849Z,100870.69
2022-08-31T23:58:57.609Z,100868.69
